Time;durP1;ratioP1;P1;durP2;ratioP2;P2;SDS_P1;SDS_P2;PMS_P1;PMS_P2;Temp;Humidity;BMP_temperature;BMP_pressure;BME280_temperature;BME280_humidity;BME280_pressure;Samples;Min_cycle;Max_cycle;Signal;HPM_P1;HPM_P2
2020/12/24 00:02:24;;;;;;;;;;;16.90;77.60;;;;;;5010977;28;20460;-60
2020/12/24 00:04:50;;;;;;;;;;;16.90;77.60;;;;;;4993102;28;19917;-61
2020/12/24 00:07:15;;;;;;;;;;;16.90;77.60;;;;;;5010386;28;19914;-61
2020/12/24 00:09:40;;;;;;;;;;;16.90;77.60;;;;;;5010075;28;19917;-61
2020/12/24 00:12:06;;;;;;;;;;;16.90;77.60;;;;;;5009534;28;19973;-62
2020/12/24 00:14:32;;;;;;;;;;;16.90;77.60;;;;;;5009359;28;19933;-62
2020/12/24 00:16:57;;;;;;;;;;;16.90;77.60;;;;;;4991690;28;20413;-61
2020/12/24 00:19:23;;;;;;;;;;;16.90;77.50;;;;;;5011859;28;19913;-61
2020/12/24 00:21:48;;;;;;;;;;;16.90;77.50;;;;;;4995015;28;19915;-61
2020/12/24 00:24:15;;;;;;;;;;;16.90;77.50;;;;;;5012506;28;19913;-61
2020/12/24 00:26:41;;;;;;;;;;;16.90;77.50;;;;;;5011955;28;20160;-60
2020/12/24 00:29:07;;;;;;;;;;;16.90;77.50;;;;;;5012420;28;20443;-61
2020/12/24 00:31:33;;;;;;;;;;;16.90;77.50;;;;;;4995182;28;20389;-59
2020/12/24 00:33:59;;;;;;;;;;;16.90;77.50;;;;;;5015971;28;19909;-61
2020/12/24 00:36:24;;;;;;;;;;;16.90;77.50;;;;;;4994956;28;20397;-60
2020/12/24 00:38:49;;;;;;;;;;;16.90;77.50;;;;;;5014797;28;19921;-62
2020/12/24 00:41:15;;;;;;;;;;;16.90;77.50;;;;;;5012060;28;19919;-61
2020/12/24 00:43:40;;;;;;;;;;;16.80;77.50;;;;;;5012979;28;19996;-61
2020/12/24 00:46:06;;;;;;;;;;;16.90;77.60;;;;;;5012361;28;20008;-62
2020/12/24 00:48:31;;;;;;;;;;;16.80;77.50;;;;;;5012126;28;19957;-61
2020/12/24 00:50:56;;;;;;;;;;;16.80;77.60;;;;;;5012172;28;19944;-61
2020/12/24 00:53:22;;;;;;;;;;;16.80;77.60;;;;;;5012660;28;19956;-62
2020/12/24 00:55:47;;;;;;;;;;;16.80;77.60;;;;;;4993898;28;19916;-62
2020/12/24 00:58:13;;;;;;;;;;;16.80;77.60;;;;;;5012214;28;19921;-62
2020/12/24 01:00:38;;;;;;;;;;;16.80;77.60;;;;;;5025264;28;20328;-62
2020/12/24 01:03:04;;;;;;;;;;;16.80;77.60;;;;;;5016109;28;20294;-60
2020/12/24 01:05:31;;;;;;;;;;;16.80;77.60;;;;;;5014145;28;19910;-61
2020/12/24 01:07:56;;;;;;;;;;;16.80;77.70;;;;;;5022081;28;20388;-60
2020/12/24 01:10:21;;;;;;;;;;;16.70;77.60;;;;;;4994048;28;19952;-62
2020/12/24 01:12:47;;;;;;;;;;;16.70;77.70;;;;;;4993467;28;19916;-61
2020/12/24 01:15:13;;;;;;;;;;;16.70;77.80;;;;;;5011308;28;20477;-62
2020/12/24 01:17:39;;;;;;;;;;;16.70;77.80;;;;;;4994223;28;19910;-61
2020/12/24 01:20:05;;;;;;;;;;;16.70;77.80;;;;;;4992670;28;19994;-61
2020/12/24 01:22:31;;;;;;;;;;;16.70;77.90;;;;;;4993625;28;19920;-61
2020/12/24 01:24:56;;;;;;;;;;;16.70;77.90;;;;;;4991354;28;19909;-61
2020/12/24 01:27:22;;;;;;;;;;;16.60;77.80;;;;;;5010519;28;19925;-61
2020/12/24 01:29:47;;;;;;;;;;;16.60;77.80;;;;;;4993315;28;19909;-61
2020/12/24 01:32:13;;;;;;;;;;;16.60;77.80;;;;;;5000568;28;19917;-60
2020/12/24 01:34:38;;;;;;;;;;;16.60;77.90;;;;;;5013435;28;20007;-61
2020/12/24 01:37:04;;;;;;;;;;;16.50;77.80;;;;;;5011619;28;19910;-61
2020/12/24 01:39:29;;;;;;;;;;;16.60;77.90;;;;;;5011529;28;20004;-61
2020/12/24 01:41:55;;;;;;;;;;;16.60;77.90;;;;;;4993314;28;19948;-61
2020/12/24 01:44:21;;;;;;;;;;;16.60;77.90;;;;;;5011045;28;19964;-62
2020/12/24 01:46:47;;;;;;;;;;;16.60;77.90;;;;;;5010338;28;19920;-60
2020/12/24 01:49:12;;;;;;;;;;;16.50;77.80;;;;;;5010814;28;20374;-61
2020/12/24 01:51:38;;;;;;;;;;;16.50;77.70;;;;;;4993630;28;20032;-61
2020/12/24 01:54:04;;;;;;;;;;;16.50;77.80;;;;;;4994371;28;19995;-60
2020/12/24 01:56:30;;;;;;;;;;;16.50;77.70;;;;;;5014309;28;19956;-62
2020/12/24 01:58:55;;;;;;;;;;;16.50;77.90;;;;;;5030852;28;20385;-61
2020/12/24 02:01:21;;;;;;;;;;;16.50;77.80;;;;;;5018189;28;19917;-61
2020/12/24 02:03:47;;;;;;;;;;;16.50;77.80;;;;;;5018332;28;19909;-61
2020/12/24 02:06:12;;;;;;;;;;;16.50;77.90;;;;;;5007329;28;20140;-61
2020/12/24 02:08:38;;;;;;;;;;;16.50;77.90;;;;;;4993442;28;19916;-60
2020/12/24 02:11:04;;;;;;;;;;;16.40;77.60;;;;;;5010476;28;19909;-61
2020/12/24 02:13:29;;;;;;;;;;;16.40;77.70;;;;;;5016028;28;20366;-61
2020/12/24 02:15:55;;;;;;;;;;;16.40;77.80;;;;;;5017960;28;20003;-60
2020/12/24 02:18:20;;;;;;;;;;;16.40;77.80;;;;;;5020059;28;20344;-61
2020/12/24 02:20:46;;;;;;;;;;;16.40;77.80;;;;;;5010561;28;19909;-61
2020/12/24 02:23:12;;;;;;;;;;;16.40;77.80;;;;;;5010204;28;20305;-59
2020/12/24 02:25:38;;;;;;;;;;;16.40;77.70;;;;;;5010623;28;20591;-61
2020/12/24 02:28:03;;;;;;;;;;;16.40;77.70;;;;;;5010036;28;19959;-61
2020/12/24 02:30:29;;;;;;;;;;;16.30;77.70;;;;;;4991125;28;19916;-61
2020/12/24 02:32:54;;;;;;;;;;;16.40;77.90;;;;;;5009779;28;19920;-60
2020/12/24 02:35:20;;;;;;;;;;;16.40;77.80;;;;;;5010442;28;19909;-61
2020/12/24 02:37:45;;;;;;;;;;;16.40;77.80;;;;;;5010535;28;19916;-62
2020/12/24 02:40:11;;;;;;;;;;;16.30;77.70;;;;;;5001743;28;19916;-61
2020/12/24 02:42:37;;;;;;;;;;;16.30;77.70;;;;;;5010169;28;19909;-62
2020/12/24 02:45:03;;;;;;;;;;;16.30;77.70;;;;;;5008742;28;19948;-62
2020/12/24 02:47:28;;;;;;;;;;;16.30;77.70;;;;;;5009828;28;20370;-61
2020/12/24 02:49:54;;;;;;;;;;;16.30;77.80;;;;;;4996431;28;19913;-60
2020/12/24 02:52:19;;;;;;;;;;;16.30;77.70;;;;;;4993799;28;19916;-61
2020/12/24 02:54:45;;;;;;;;;;;16.30;77.70;;;;;;5010567;28;19913;-61
2020/12/24 02:57:10;;;;;;;;;;;16.30;77.60;;;;;;5010550;28;19916;-62
2020/12/24 02:59:39;;;;;;;;;;;16.30;77.70;;;;;;5010462;28;19913;-60
2020/12/24 03:02:04;;;;;;;;;;;16.30;77.80;;;;;;5020034;28;20341;-61
2020/12/24 03:04:30;;;;;;;;;;;16.20;77.60;;;;;;5020126;28;19920;-61
2020/12/24 03:06:56;;;;;;;;;;;16.20;77.50;;;;;;5016645;28;19914;-62
2020/12/24 03:09:21;;;;;;;;;;;16.20;77.60;;;;;;4994808;28;19910;-61
2020/12/24 03:11:49;;;;;;;;;;;16.20;77.70;;;;;;5010238;28;19910;-61
2020/12/24 03:14:16;;;;;;;;;;;16.30;77.70;;;;;;5005243;28;19909;-61
2020/12/24 03:16:41;;;;;;;;;;;16.20;77.70;;;;;;4992160;28;19957;-61
2020/12/24 03:19:07;;;;;;;;;;;16.20;77.70;;;;;;5010641;28;19913;-61
2020/12/24 03:21:32;;;;;;;;;;;16.30;77.70;;;;;;4992253;28;19996;-60
2020/12/24 03:23:58;;;;;;;;;;;16.20;77.60;;;;;;5011368;28;19960;-61
2020/12/24 03:26:23;;;;;;;;;;;16.20;77.60;;;;;;4991168;28;19909;-61
2020/12/24 03:28:48;;;;;;;;;;;16.20;77.70;;;;;;5010016;28;19913;-61
2020/12/24 03:31:20;;;;;;;;;;;16.20;77.70;;;;;;5009739;28;20290;-61
2020/12/24 03:33:45;;;;;;;;;;;16.20;77.60;;;;;;5024487;28;20390;-62
2020/12/24 03:36:11;;;;;;;;;;;16.20;77.60;;;;;;5009514;28;19909;-60
2020/12/24 03:38:36;;;;;;;;;;;16.20;77.70;;;;;;5010030;28;19956;-61
2020/12/24 03:41:02;;;;;;;;;;;16.20;77.80;;;;;;5022831;28;20362;-61
2020/12/24 03:43:27;;;;;;;;;;;16.20;77.80;;;;;;5006863;28;19909;-61
2020/12/24 03:45:53;;;;;;;;;;;16.10;77.60;;;;;;5015276;28;19959;-61
2020/12/24 03:48:18;;;;;;;;;;;16.10;77.70;;;;;;5013457;28;19909;-61
2020/12/24 03:50:44;;;;;;;;;;;16.10;77.60;;;;;;5013709;28;19906;-61
2020/12/24 03:53:09;;;;;;;;;;;16.10;77.70;;;;;;5012273;28;20492;-61
2020/12/24 03:55:34;;;;;;;;;;;16.10;77.60;;;;;;5013324;28;20349;-61
2020/12/24 03:58:00;;;;;;;;;;;16.10;77.70;;;;;;5024602;28;20290;-61
2020/12/24 04:00:25;;;;;;;;;;;16.10;77.70;;;;;;5015640;28;20406;-61
2020/12/24 04:02:51;;;;;;;;;;;16.10;77.50;;;;;;4995737;28;19928;-61
2020/12/24 04:05:16;;;;;;;;;;;16.10;77.80;;;;;;4995797;28;19971;-62
2020/12/24 04:07:42;;;;;;;;;;;16.10;77.70;;;;;;5013616;28;19916;-61
2020/12/24 04:10:07;;;;;;;;;;;16.10;77.70;;;;;;5006154;28;19913;-61
2020/12/24 04:12:32;;;;;;;;;;;16.10;77.70;;;;;;5012465;28;19963;-61
2020/12/24 04:14:58;;;;;;;;;;;16.10;77.70;;;;;;5024908;28;20004;-60
2020/12/24 04:17:25;;;;;;;;;;;16.10;77.70;;;;;;4994953;28;19916;-61
2020/12/24 04:19:51;;;;;;;;;;;16.10;77.70;;;;;;4997540;28;19913;-61
2020/12/24 04:22:16;;;;;;;;;;;16.10;77.70;;;;;;4997576;28;19958;-60
2020/12/24 04:24:42;;;;;;;;;;;16.10;77.90;;;;;;5024260;28;19946;-61
2020/12/24 04:27:07;;;;;;;;;;;16.10;77.60;;;;;;4995388;28;20002;-60
2020/12/24 04:29:32;;;;;;;;;;;16.00;77.70;;;;;;5012761;28;20399;-61
2020/12/24 04:31:58;;;;;;;;;;;16.00;77.70;;;;;;5012760;28;19917;-61
2020/12/24 04:34:23;;;;;;;;;;;16.00;77.70;;;;;;5014159;28;19910;-61
2020/12/24 04:36:50;;;;;;;;;;;16.00;77.70;;;;;;4995339;28;20000;-62
2020/12/24 04:39:15;;;;;;;;;;;16.00;77.70;;;;;;5017153;28;19917;-61
2020/12/24 04:41:41;;;;;;;;;;;16.00;77.70;;;;;;5026581;28;19967;-62
2020/12/24 04:44:07;;;;;;;;;;;16.00;77.70;;;;;;5015289;28;19913;-63
2020/12/24 04:46:35;;;;;;;;;;;16.00;77.70;;;;;;5002213;28;19916;-61
2020/12/24 04:49:01;;;;;;;;;;;16.00;78.30;;;;;;5018534;28;19905;-61
2020/12/24 04:51:28;;;;;;;;;;;16.00;77.70;;;;;;4995588;28;20333;-62
2020/12/24 04:53:53;;;;;;;;;;;16.00;77.80;;;;;;4993910;28;19913;-62
2020/12/24 04:56:19;;;;;;;;;;;16.00;77.80;;;;;;4994697;28;19925;-61
2020/12/24 04:58:44;;;;;;;;;;;16.00;77.80;;;;;;5012298;28;19955;-62
2020/12/24 05:01:17;;;;;;;;;;;16.00;77.80;;;;;;4994768;28;19909;-61
2020/12/24 05:03:43;;;;;;;;;;;16.00;77.70;;;;;;4996733;28;19916;-63
2020/12/24 05:06:15;;;;;;;;;;;16.00;77.70;;;;;;5013109;28;20274;-62
2020/12/24 05:08:40;;;;;;;;;;;16.00;77.60;;;;;;5012246;28;20270;-61
2020/12/24 05:11:09;;;;;;;;;;;16.00;77.70;;;;;;4994061;28;19916;-62
2020/12/24 05:13:35;;;;;;;;;;;15.90;77.70;;;;;;4994456;28;20355;-61
2020/12/24 05:16:14;;;;;;;;;;;16.00;77.80;;;;;;5012122;28;19910;-61
2020/12/24 05:18:39;;;;;;;;;;;16.00;77.80;;;;;;4993262;28;19936;-61
2020/12/24 05:21:05;;;;;;;;;;;15.90;77.70;;;;;;5012047;28;19916;-63
2020/12/24 05:23:31;;;;;;;;;;;15.90;77.70;;;;;;5011141;28;20321;-61
2020/12/24 05:25:56;;;;;;;;;;;15.90;77.70;;;;;;5010763;28;19913;-63
2020/12/24 05:28:26;;;;;;;;;;;15.90;77.70;;;;;;5011802;28;19945;-62
2020/12/24 05:30:52;;;;;;;;;;;15.90;77.70;;;;;;4994347;28;20358;-62
2020/12/24 05:33:33;;;;;;;;;;;15.90;77.70;;;;;;5007940;28;19919;-63
2020/12/24 05:36:18;;;;;;;;;;;15.90;77.80;;;;;;5021099;28;19928;-62
2020/12/24 05:38:43;;;;;;;;;;;15.90;77.80;;;;;;5021457;28;19910;-62
2020/12/24 05:41:24;;;;;;;;;;;15.90;77.90;;;;;;4993503;28;19909;-61
2020/12/24 05:43:56;;;;;;;;;;;15.90;77.90;;;;;;5012580;28;20603;-62
2020/12/24 05:46:23;;;;;;;;;;;15.90;78.00;;;;;;5014938;28;19940;-63
2020/12/24 05:48:48;;;;;;;;;;;15.90;78.10;;;;;;5011766;28;19910;-62
2020/12/24 05:51:18;;;;;;;;;;;15.90;78.20;;;;;;5020235;28;19916;-63
2020/12/24 05:53:46;;;;;;;;;;;15.90;78.30;;;;;;5026982;28;19917;-62
2020/12/24 05:56:19;;;;;;;;;;;15.90;78.40;;;;;;5012834;28;19916;-63
2020/12/24 05:58:46;;;;;;;;;;;15.90;78.50;;;;;;5013414;28;19980;-64
2020/12/24 06:01:12;;;;;;;;;;;15.90;78.60;;;;;;5020323;28;19916;-62
2020/12/24 06:03:43;;;;;;;;;;;15.90;78.60;;;;;;5011420;28;19918;-62
2020/12/24 06:06:12;;;;;;;;;;;15.90;78.70;;;;;;5010893;28;20366;-63
2020/12/24 06:08:45;;;;;;;;;;;15.80;78.70;;;;;;5010530;28;19960;-62
2020/12/24 06:11:10;;;;;;;;;;;15.80;78.70;;;;;;5010787;28;19974;-60
2020/12/24 06:13:43;;;;;;;;;;;15.80;78.80;;;;;;5013609;28;19921;-61
2020/12/24 06:16:09;;;;;;;;;;;15.80;78.80;;;;;;5011156;28;19916;-63
2020/12/24 06:18:36;;;;;;;;;;;15.80;78.90;;;;;;4993343;28;19913;-60
2020/12/24 06:21:02;;;;;;;;;;;15.80;78.90;;;;;;4993534;28;20400;-63
2020/12/24 06:23:31;;;;;;;;;;;15.80;78.90;;;;;;5013602;28;19913;-61
2020/12/24 06:25:56;;;;;;;;;;;15.70;78.90;;;;;;4993201;28;19913;-62
2020/12/24 06:28:22;;;;;;;;;;;15.80;79.00;;;;;;5020759;28;19963;-62
2020/12/24 06:30:48;;;;;;;;;;;15.70;78.90;;;;;;4992630;28;19935;-62
2020/12/24 06:33:24;;;;;;;;;;;15.70;79.00;;;;;;4990878;28;19916;-61
2020/12/24 06:35:50;;;;;;;;;;;15.70;79.20;;;;;;5011090;28;20370;-62
2020/12/24 06:38:15;;;;;;;;;;;15.70;79.40;;;;;;4999863;28;19917;-61
2020/12/24 06:40:41;;;;;;;;;;;15.70;79.30;;;;;;5011939;28;19909;-61
2020/12/24 06:43:09;;;;;;;;;;;15.70;79.30;;;;;;5002538;28;19917;-61
2020/12/24 06:45:36;;;;;;;;;;;15.70;79.20;;;;;;4984851;28;19952;-61
2020/12/24 06:48:08;;;;;;;;;;;15.70;79.30;;;;;;5005568;28;19971;-61
2020/12/24 06:50:37;;;;;;;;;;;15.70;79.20;;;;;;4985712;28;19917;-61
2020/12/24 06:53:39;;;;;;;;;;;15.60;79.20;;;;;;5002873;28;19921;-61
2020/12/24 06:56:19;;;;;;;;;;;15.60;79.30;;;;;;4922384;29;19922;-61
2020/12/24 06:58:45;;;;;;;;;;;15.60;79.30;;;;;;4990956;28;19922;-61
2020/12/24 07:01:19;;;;;;;;;;;15.60;79.50;;;;;;5007636;28;20416;-61
2020/12/24 07:03:45;;;;;;;;;;;15.60;79.40;;;;;;5006916;28;19913;-60
2020/12/24 07:06:10;;;;;;;;;;;15.60;79.40;;;;;;4986116;28;19920;-61
2020/12/24 07:08:35;;;;;;;;;;;15.50;79.30;;;;;;4994661;28;19917;-61
2020/12/24 07:11:02;;;;;;;;;;;15.50;79.40;;;;;;5001596;28;20482;-60
2020/12/24 07:13:30;;;;;;;;;;;15.50;79.40;;;;;;5002860;28;19913;-61
2020/12/24 07:15:56;;;;;;;;;;;15.50;79.60;;;;;;5001186;28;19948;-61
2020/12/24 07:18:23;;;;;;;;;;;15.50;79.60;;;;;;5006801;28;19968;-60
2020/12/24 07:20:49;;;;;;;;;;;15.50;79.70;;;;;;5006335;28;19917;-61
2020/12/24 07:23:17;;;;;;;;;;;15.40;79.60;;;;;;5006685;28;19924;-61
2020/12/24 07:25:46;;;;;;;;;;;15.40;79.60;;;;;;5005026;28;19975;-61
2020/12/24 07:28:14;;;;;;;;;;;15.40;79.80;;;;;;4989728;28;19948;-60
2020/12/24 07:30:40;;;;;;;;;;;15.40;79.70;;;;;;5004821;28;19914;-61
2020/12/24 07:33:06;;;;;;;;;;;15.40;79.80;;;;;;4997094;28;19918;-61
2020/12/24 07:35:31;;;;;;;;;;;15.40;79.90;;;;;;4986065;28;20362;-61
2020/12/24 07:37:57;;;;;;;;;;;15.40;80.00;;;;;;5004199;28;19913;-61
2020/12/24 07:40:29;;;;;;;;;;;15.40;79.90;;;;;;4989668;28;19948;-61
2020/12/24 07:43:05;;;;;;;;;;;15.50;80.10;;;;;;4989903;28;19925;-62
2020/12/24 07:45:30;;;;;;;;;;;15.40;80.10;;;;;;4992826;28;19921;-62
2020/12/24 07:48:32;;;;;;;;;;;15.40;80.10;;;;;;5082419;22;19925;-61
2020/12/24 07:54:05;;;;;;;;;;;15.40;80.30;;;;;;4983345;28;20011;-61
2020/12/24 07:56:32;;;;;;;;;;;15.40;80.20;;;;;;5029412;28;19951;-62
2020/12/24 07:59:01;;;;;;;;;;;15.40;80.10;;;;;;5035881;28;19917;-60
2020/12/24 08:01:26;;;;;;;;;;;15.40;80.30;;;;;;5033584;28;19919;-62
2020/12/24 08:04:03;;;;;;;;;;;15.30;80.30;;;;;;5034007;28;19928;-61
2020/12/24 08:06:28;;;;;;;;;;;15.40;80.30;;;;;;5024511;28;19920;-61
2020/12/24 08:09:13;;;;;;;;;;;15.30;80.10;;;;;;5025748;28;19913;-61
2020/12/24 08:11:39;;;;;;;;;;;15.30;80.30;;;;;;5027886;28;20294;-61
2020/12/24 08:14:04;;;;;;;;;;;15.40;80.50;;;;;;5031978;28;19909;-59
2020/12/24 08:16:32;;;;;;;;;;;15.40;80.60;;;;;;5012329;28;20583;-60
2020/12/24 08:19:03;;;;;;;;;;;15.50;80.60;;;;;;5027070;28;19913;-60
2020/12/24 08:21:31;;;;;;;;;;;15.50;80.90;;;;;;5022651;28;19913;-62
2020/12/24 08:24:08;;;;;;;;;;;15.50;81.40;;;;;;5022777;28;20020;-62
2020/12/24 08:26:34;;;;;;;;;;;15.60;80.80;;;;;;5023766;28;19909;-60
2020/12/24 08:29:05;;;;;;;;;;;15.50;79.70;;;;;;5002840;28;19959;-62
2020/12/24 08:31:31;;;;;;;;;;;15.60;79.30;;;;;;5007344;28;19917;-62
2020/12/24 08:33:57;;;;;;;;;;;15.50;79.70;;;;;;5011587;28;19935;-62
2020/12/24 08:36:26;;;;;;;;;;;15.60;79.30;;;;;;5008444;28;19909;-61
2020/12/24 08:39:03;;;;;;;;;;;15.60;79.10;;;;;;5011816;28;19913;-62
2020/12/24 08:41:32;;;;;;;;;;;15.70;79.00;;;;;;5014891;28;19913;-61
2020/12/24 08:43:57;;;;;;;;;;;15.60;79.00;;;;;;5031264;28;19963;-62
2020/12/24 08:46:23;;;;;;;;;;;15.80;79.00;;;;;;5024068;28;19909;-62
2020/12/24 08:48:49;;;;;;;;;;;15.80;79.00;;;;;;5026485;28;20435;-62
2020/12/24 08:51:15;;;;;;;;;;;15.90;78.70;;;;;;5028399;28;19963;-61
2020/12/24 08:53:41;;;;;;;;;;;15.90;78.40;;;;;;5030208;28;19920;-62
2020/12/24 08:56:10;;;;;;;;;;;16.00;77.90;;;;;;5014060;28;19987;-64
2020/12/24 08:58:45;;;;;;;;;;;16.00;77.40;;;;;;5031713;28;19952;-63
2020/12/24 09:01:10;;;;;;;;;;;16.10;77.10;;;;;;5031191;28;19955;-64
2020/12/24 09:03:35;;;;;;;;;;;16.10;77.20;;;;;;5029234;28;19909;-63
2020/12/24 09:06:08;;;;;;;;;;;16.10;77.10;;;;;;5013614;28;19912;-63
2020/12/24 09:08:33;;;;;;;;;;;16.10;77.80;;;;;;5031021;28;19959;-61
2020/12/24 09:10:59;;;;;;;;;;;16.20;77.30;;;;;;5031320;28;20361;-63
2020/12/24 09:13:24;;;;;;;;;;;16.20;77.60;;;;;;5013204;28;20214;-64
2020/12/24 09:15:50;;;;;;;;;;;16.30;77.60;;;;;;5027643;28;19916;-62
2020/12/24 09:18:16;;;;;;;;;;;16.30;77.80;;;;;;5030922;28;20004;-64
2020/12/24 09:20:41;;;;;;;;;;;16.30;77.90;;;;;;5032972;28;19971;-65
2020/12/24 09:23:14;;;;;;;;;;;16.40;77.90;;;;;;5027810;28;20373;-63
2020/12/24 09:25:43;;;;;;;;;;;16.40;78.10;;;;;;5013769;28;19905;-63
2020/12/24 09:28:25;;;;;;;;;;;16.40;77.80;;;;;;5031035;28;19908;-62
2020/12/24 09:30:52;;;;;;;;;;;16.50;78.00;;;;;;5032022;28;20266;-63
2020/12/24 09:33:17;;;;;;;;;;;16.60;77.60;;;;;;5014256;28;19951;-63
2020/12/24 09:35:43;;;;;;;;;;;16.60;77.00;;;;;;5013022;28;19913;-63
2020/12/24 09:38:08;;;;;;;;;;;16.60;77.50;;;;;;5029750;28;19944;-61
2020/12/24 09:40:34;;;;;;;;;;;16.70;77.50;;;;;;5012862;28;19909;-64
2020/12/24 09:43:00;;;;;;;;;;;16.70;77.30;;;;;;5014258;28;20389;-63
2020/12/24 09:45:27;;;;;;;;;;;16.60;77.40;;;;;;5013565;28;19920;-63
2020/12/24 09:47:52;;;;;;;;;;;16.70;77.60;;;;;;5031559;28;19905;-62
2020/12/24 09:50:18;;;;;;;;;;;16.70;77.60;;;;;;5031613;28;20369;-63
2020/12/24 09:52:43;;;;;;;;;;;16.70;77.80;;;;;;5027153;28;20571;-62
2020/12/24 09:55:09;;;;;;;;;;;16.70;77.80;;;;;;5013422;28;20403;-63
2020/12/24 09:57:34;;;;;;;;;;;16.70;77.80;;;;;;5031169;28;19936;-65
2020/12/24 10:00:00;;;;;;;;;;;16.70;77.90;;;;;;5017688;28;19913;-64
2020/12/24 10:05:29;;;;;;;;;;;16.80;78.10;;;;;;5031313;28;19920;-64
2020/12/24 10:07:57;;;;;;;;;;;16.80;78.00;;;;;;5027688;28;19909;-63
2020/12/24 10:10:22;;;;;;;;;;;16.70;77.80;;;;;;5011704;28;19912;-64
2020/12/24 10:12:48;;;;;;;;;;;16.70;77.80;;;;;;5032513;28;19913;-64
2020/12/24 10:15:13;;;;;;;;;;;16.70;78.00;;;;;;5018547;28;19908;-61
2020/12/24 10:17:39;;;;;;;;;;;16.70;78.10;;;;;;5017703;28;19905;-63
2020/12/24 10:20:04;;;;;;;;;;;16.70;78.30;;;;;;5004866;28;19909;-63
2020/12/24 10:22:30;;;;;;;;;;;16.70;78.20;;;;;;5006899;28;19901;-62
2020/12/24 10:24:55;;;;;;;;;;;16.70;78.30;;;;;;5010047;28;20712;-62
2020/12/24 10:27:20;;;;;;;;;;;16.70;78.40;;;;;;5010015;28;20336;-61
2020/12/24 10:29:46;;;;;;;;;;;16.90;78.20;;;;;;5023771;28;19915;-63
2020/12/24 10:32:12;;;;;;;;;;;16.80;78.50;;;;;;5029245;28;19932;-62
2020/12/24 10:34:37;;;;;;;;;;;16.80;78.70;;;;;;5027433;28;19905;-63
2020/12/24 10:37:03;;;;;;;;;;;16.90;79.10;;;;;;5009690;28;19948;-64
2020/12/24 10:39:28;;;;;;;;;;;16.90;79.60;;;;;;5020350;28;19932;-62
2020/12/24 10:41:54;;;;;;;;;;;16.90;80.90;;;;;;5022514;28;19913;-62
2020/12/24 10:44:19;;;;;;;;;;;16.90;81.10;;;;;;5025671;28;19917;-62
2020/12/24 10:46:45;;;;;;;;;;;16.90;80.60;;;;;;5023810;28;19913;-63
2020/12/24 10:49:11;;;;;;;;;;;16.90;80.50;;;;;;5029968;28;19931;-62
2020/12/24 10:51:36;;;;;;;;;;;17.00;80.20;;;;;;5013525;28;19913;-63
2020/12/24 10:54:02;;;;;;;;;;;17.00;79.90;;;;;;5019760;28;19935;-63
2020/12/24 10:56:28;;;;;;;;;;;17.00;79.50;;;;;;5040635;28;19932;-62
2020/12/24 10:58:53;;;;;;;;;;;17.10;79.40;;;;;;5043709;28;19909;-63
2020/12/24 11:01:19;;;;;;;;;;;17.10;79.20;;;;;;5026591;28;20328;-63
2020/12/24 11:03:45;;;;;;;;;;;17.10;78.90;;;;;;5028178;28;19917;-62
2020/12/24 11:06:18;;;;;;;;;;;17.20;78.70;;;;;;5036282;28;20423;-62
2020/12/24 11:08:43;;;;;;;;;;;17.10;78.80;;;;;;5032928;28;20443;-61
2020/12/24 11:11:09;;;;;;;;;;;17.10;78.70;;;;;;5033701;28;19909;-63
2020/12/24 11:13:34;;;;;;;;;;;17.10;78.70;;;;;;5016017;28;20047;-62
2020/12/24 11:16:00;;;;;;;;;;;17.00;78.70;;;;;;5016053;28;19932;-63
2020/12/24 11:18:25;;;;;;;;;;;17.00;78.80;;;;;;5033046;28;19920;-62
2020/12/24 11:20:51;;;;;;;;;;;16.90;78.70;;;;;;5031075;28;19905;-61
2020/12/24 11:23:16;;;;;;;;;;;17.00;78.80;;;;;;5016185;28;19909;-62
2020/12/24 11:25:42;;;;;;;;;;;17.00;78.90;;;;;;5007914;28;20390;-62
2020/12/24 11:28:08;;;;;;;;;;;17.00;78.90;;;;;;5015152;28;19909;-62
2020/12/24 11:30:33;;;;;;;;;;;16.90;78.80;;;;;;5015855;28;19909;-62
2020/12/24 11:32:59;;;;;;;;;;;16.90;78.80;;;;;;5015809;28;19967;-61
2020/12/24 11:35:25;;;;;;;;;;;17.00;79.40;;;;;;5014948;28;19912;-62
2020/12/24 11:37:50;;;;;;;;;;;17.00;78.70;;;;;;5043889;28;19909;-62
2020/12/24 11:40:16;;;;;;;;;;;16.90;78.60;;;;;;5033613;28;20387;-62
2020/12/24 11:42:41;;;;;;;;;;;16.90;78.60;;;;;;5033103;28;19912;-62
2020/12/24 11:45:07;;;;;;;;;;;16.90;78.40;;;;;;5033082;28;19909;-62
2020/12/24 11:47:36;;;;;;;;;;;16.80;77.90;;;;;;5020391;28;19909;-64
2020/12/24 11:50:03;;;;;;;;;;;16.90;78.40;;;;;;5033454;28;19909;-62
2020/12/24 11:52:28;;;;;;;;;;;16.90;78.30;;;;;;5033402;28;20411;-61
2020/12/24 11:54:54;;;;;;;;;;;16.90;78.30;;;;;;5037974;28;19936;-63
2020/12/24 11:57:19;;;;;;;;;;;17.00;78.50;;;;;;5035332;28;19908;-62
2020/12/24 11:59:45;;;;;;;;;;;16.90;78.20;;;;;;5030704;28;19928;-63
2020/12/24 12:02:11;;;;;;;;;;;16.90;78.20;;;;;;5032141;28;19905;-62
2020/12/24 12:04:36;;;;;;;;;;;16.90;78.10;;;;;;5032616;28;19935;-62
2020/12/24 12:07:02;;;;;;;;;;;16.80;78.10;;;;;;5032064;28;19995;-63
2020/12/24 12:09:28;;;;;;;;;;;16.90;78.00;;;;;;5014956;28;20308;-62
2020/12/24 12:11:53;;;;;;;;;;;16.80;77.90;;;;;;5032443;28;19905;-63
2020/12/24 12:14:18;;;;;;;;;;;16.90;78.00;;;;;;5016813;28;19921;-61
2020/12/24 12:16:44;;;;;;;;;;;16.80;78.10;;;;;;5014365;28;19909;-63
2020/12/24 12:19:09;;;;;;;;;;;16.90;78.50;;;;;;5027860;28;20000;-63
2020/12/24 12:21:36;;;;;;;;;;;16.90;78.70;;;;;;5031380;28;19999;-62
2020/12/24 12:24:02;;;;;;;;;;;16.90;78.60;;;;;;5026450;28;19911;-63
2020/12/24 12:26:27;;;;;;;;;;;16.90;78.70;;;;;;5028253;28;20035;-63
2020/12/24 12:28:53;;;;;;;;;;;16.90;78.60;;;;;;5025108;28;19923;-63
2020/12/24 12:31:19;;;;;;;;;;;16.90;78.80;;;;;;5028885;28;19909;-64
2020/12/24 12:33:45;;;;;;;;;;;16.90;78.70;;;;;;5010456;28;19908;-62
2020/12/24 12:36:10;;;;;;;;;;;17.00;78.80;;;;;;5024289;28;19955;-63
2020/12/24 12:38:36;;;;;;;;;;;16.90;79.00;;;;;;5008982;28;19913;-64
2020/12/24 12:41:01;;;;;;;;;;;16.90;78.60;;;;;;5024093;28;20044;-63
2020/12/24 12:43:27;;;;;;;;;;;16.90;77.70;;;;;;5023357;28;19909;-64
2020/12/24 12:45:52;;;;;;;;;;;16.90;77.40;;;;;;5025004;28;19909;-63
2020/12/24 12:48:18;;;;;;;;;;;16.90;77.40;;;;;;5024775;28;19909;-63
2020/12/24 12:50:43;;;;;;;;;;;16.90;77.40;;;;;;5027905;28;20362;-64
2020/12/24 12:53:08;;;;;;;;;;;16.90;77.60;;;;;;5010718;28;19917;-63
2020/12/24 12:55:34;;;;;;;;;;;16.90;77.70;;;;;;5029078;28;20008;-64
2020/12/24 12:58:00;;;;;;;;;;;16.90;77.60;;;;;;5014029;28;19913;-65
2020/12/24 13:00:25;;;;;;;;;;;16.90;77.40;;;;;;5014066;28;19916;-64
2020/12/24 13:02:51;;;;;;;;;;;16.90;77.10;;;;;;5013190;28;20000;-63
2020/12/24 13:05:16;;;;;;;;;;;16.90;76.80;;;;;;5032155;28;19947;-66
2020/12/24 13:07:41;;;;;;;;;;;16.90;76.80;;;;;;5025481;28;19955;-64
2020/12/24 13:10:07;;;;;;;;;;;16.80;76.90;;;;;;5032306;28;19916;-64
2020/12/24 13:12:32;;;;;;;;;;;16.80;77.00;;;;;;5018788;28;19909;-64
2020/12/24 13:14:58;;;;;;;;;;;16.90;77.10;;;;;;5019591;28;19909;-63
2020/12/24 13:17:26;;;;;;;;;;;16.80;77.40;;;;;;5027039;28;19972;-64
2020/12/24 13:19:52;;;;;;;;;;;16.80;77.40;;;;;;5009848;28;19928;-63
2020/12/24 13:22:17;;;;;;;;;;;16.80;77.90;;;;;;5013404;28;19905;-63
2020/12/24 13:24:45;;;;;;;;;;;16.80;77.80;;;;;;5031060;28;19956;-65
2020/12/24 13:27:10;;;;;;;;;;;16.80;77.80;;;;;;5005443;28;20336;-65
2020/12/24 13:29:36;;;;;;;;;;;16.80;77.60;;;;;;5010528;28;20709;-63
2020/12/24 13:32:01;;;;;;;;;;;16.80;77.70;;;;;;5023794;28;19905;-65
2020/12/24 13:34:27;;;;;;;;;;;16.80;77.70;;;;;;5012618;28;20004;-62
2020/12/24 13:36:52;;;;;;;;;;;16.80;77.40;;;;;;5030205;28;19995;-63
2020/12/24 13:39:18;;;;;;;;;;;16.80;77.00;;;;;;5010586;28;19919;-64
2020/12/24 13:41:47;;;;;;;;;;;16.80;76.80;;;;;;5023261;28;19909;-63
2020/12/24 13:44:13;;;;;;;;;;;16.80;76.70;;;;;;5027814;28;19909;-66
2020/12/24 13:46:38;;;;;;;;;;;16.80;76.50;;;;;;5028281;28;20370;-63
2020/12/24 13:49:04;;;;;;;;;;;16.80;76.40;;;;;;5025163;28;19924;-66
2020/12/24 13:51:29;;;;;;;;;;;16.70;76.40;;;;;;5006974;28;19909;-64
2020/12/24 13:53:55;;;;;;;;;;;16.80;76.70;;;;;;5006877;28;19905;-62
2020/12/24 13:56:20;;;;;;;;;;;16.70;76.40;;;;;;5027548;28;19925;-63
2020/12/24 13:58:45;;;;;;;;;;;16.70;76.30;;;;;;5029687;28;19921;-63
2020/12/24 14:01:14;;;;;;;;;;;16.70;76.20;;;;;;5009668;28;19905;-66
2020/12/24 14:03:41;;;;;;;;;;;16.70;76.00;;;;;;5030096;28;19916;-63
2020/12/24 14:06:10;;;;;;;;;;;16.80;75.60;;;;;;5011164;28;19909;-63
2020/12/24 14:08:35;;;;;;;;;;;16.80;75.90;;;;;;5027200;28;20436;-63
2020/12/24 14:11:01;;;;;;;;;;;16.80;75.90;;;;;;5008903;28;19909;-63
2020/12/24 14:13:26;;;;;;;;;;;16.80;75.90;;;;;;5025446;28;19920;-63
2020/12/24 14:15:52;;;;;;;;;;;16.80;75.90;;;;;;5027782;28;19924;-62
2020/12/24 14:18:17;;;;;;;;;;;16.80;76.00;;;;;;5004796;28;19913;-64
2020/12/24 14:20:43;;;;;;;;;;;16.80;76.00;;;;;;5021280;28;19916;-62